Radar is unstable, so pay attention to the date and time in the image

Latest  Newer  Older  Last 2 hours animation  Current image  Latest image  Summary per 24h (testing)  Summary per 7d (testing) 
Cloud coverage sat images  Infrared sat images 
Real-time lightning map

All time is UTC (add 2 hours in wintertime, 3 hours in DST for Latvia local time)

2020/10/19 21:20 EVRA 192120Z 25004KT 210V300 CAVOK 05/01 Q1013 R18/190095 NOSIG
2020/10/19 21:20 EVLA 192120Z AUTO 29009KT 260V330 9999 SCT044/// SCT240/// 09/M00 Q1016
2020/10/19 21:20 EVVA 192120Z AUTO 31015KT 9999 BKN044 OVC055 08/01 Q1014
2020/10/19 21:20 EYKA 192120Z AUTO 24008KT 210V290 9999 FEW053/// 04/02 Q1017
2020/10/19 21:20 EYPA 192120Z AUTO 30006KT 240V350 9999 SCT046/// 09/00 Q1017
2020/10/19 21:20 EYSA 192120Z 24007KT CAVOK 03/M00 Q1016 BLU NOSIG
2020/10/19 21:20 EYVI 192120Z 24007KT 9999 BKN045 03/02 Q1017 NOSIG
2020/10/19 15:20 EEKA 191520Z 30019G32KT 280V330 9999 -SHRA FEW009 SCT021CB BKN040 06/04 Q1006
2020/10/19 21:20 EEKE 192120Z AUTO 30007KT 250V350 9999NDV -RA SCT030 SCT040 05/02 Q1012
2020/10/19 13:20 EEPU 191320Z 26014KT 230V290 9999 VCSH SCT019 06/03 Q1005
2020/10/19 21:20 EETN 192120Z 30008KT 260V360 9999 -SHRA SCT015 SCT020CB BKN027 03/00 Q1008 R08/19//95 TEMPO 3000 SHRASN
2020/10/19 21:20 EETU 192120Z AUTO 28011KT 9999 BKN010/// BKN014/// OVC025/// 03/02 Q1007 REDZ REUP
   RIGA AIRPORT     EVRA               56 55N  023 58E   10   X     T          6 LV
   LIEPAJA INTL     EVLA        26406  56 31N  021 06E    4   X                8 LV
   VENTPILS         EVVA               57 21N  021 33E    6   X                8 LV
   KAUNAS           EYKA               54 54N  023 55E   77   X     T          6 LT
   PALANGA INTL     EYPA               55 55N  021 03E   10   X                6 LT
   SIAULIAI INTL    EYSA               55 54N  023 24E  135   X     T          6 LT
   VILNIUS INTL     EYVI        26730  54 38N  025 17E  197   X     T          6 LT
   KARDLA           EEKA        26116  58 59N  022 50E    4   X                8 EE
   KURESSAARE       EEKE               58 14N  022 31E    4   X                8 EE
   PARNU            EEPU               58 25N  024 28E   14   X                8 EE
   TALLINN          EETN        26038  59 24N  024 49E   40   X     T          8 EE
   TARTU            EETU               58 19N  026 41E   67   X                8 EE

rain/snow radar image from www.meteo.lv and METAR data from weather.noaa.gov